sensor_id;sensor_type;location;lat;lon;timestamp;P1;durP1;ratioP1;P2;durP2;ratioP2
73113;SDS011;61301;51.956;5.876;2023-08-12T00:01:52;4.00;;;2.45;;
73113;SDS011;61301;51.956;5.876;2023-08-12T00:04:18;2.78;;;1.60;;
73113;SDS011;61301;51.956;5.876;2023-08-12T00:06:44;1.95;;;1.73;;
73113;SDS011;61301;51.956;5.876;2023-08-12T00:09:10;1.23;;;1.13;;
73113;SDS011;61301;51.956;5.876;2023-08-12T00:11:38;4.72;;;2.95;;
73113;SDS011;61301;51.956;5.876;2023-08-12T00:14:04;2.00;;;1.77;;
73113;SDS011;61301;51.956;5.876;2023-08-12T00:16:30;5.35;;;2.53;;
73113;SDS011;61301;51.956;5.876;2023-08-12T00:18:56;4.97;;;3.78;;
73113;SDS011;61301;51.956;5.876;2023-08-12T00:21:22;3.88;;;2.63;;
73113;SDS011;61301;51.956;5.876;2023-08-12T00:23:48;1.98;;;1.63;;
73113;SDS011;61301;51.956;5.876;2023-08-12T00:26:15;2.95;;;1.98;;
73113;SDS011;61301;51.956;5.876;2023-08-12T00:28:41;3.78;;;2.38;;
73113;SDS011;61301;51.956;5.876;2023-08-12T00:31:07;3.92;;;2.38;;
73113;SDS011;61301;51.956;5.876;2023-08-12T00:33:33;6.88;;;3.65;;
73113;SDS011;61301;51.956;5.876;2023-08-12T00:35:59;5.82;;;3.65;;
73113;SDS011;61301;51.956;5.876;2023-08-12T00:38:27;5.22;;;3.88;;
73113;SDS011;61301;51.956;5.876;2023-08-12T00:40:54;4.95;;;3.38;;
73113;SDS011;61301;51.956;5.876;2023-08-12T00:43:20;6.15;;;3.88;;
73113;SDS011;61301;51.956;5.876;2023-08-12T00:45:46;11.88;;;6.65;;
73113;SDS011;61301;51.956;5.876;2023-08-12T00:48:12;6.40;;;4.97;;
73113;SDS011;61301;51.956;5.876;2023-08-12T00:50:40;6.00;;;4.30;;
73113;SDS011;61301;51.956;5.876;2023-08-12T00:53:07;6.97;;;3.80;;
73113;SDS011;61301;51.956;5.876;2023-08-12T00:55:34;3.03;;;2.45;;
73113;SDS011;61301;51.956;5.876;2023-08-12T00:58:00;2.85;;;2.55;;
73113;SDS011;61301;51.956;5.876;2023-08-12T01:00:27;3.97;;;3.17;;
73113;SDS011;61301;51.956;5.876;2023-08-12T01:02:53;5.50;;;3.50;;
73113;SDS011;61301;51.956;5.876;2023-08-12T01:05:22;7.38;;;4.75;;
73113;SDS011;61301;51.956;5.876;2023-08-12T01:07:48;4.63;;;2.72;;
73113;SDS011;61301;51.956;5.876;2023-08-12T01:10:14;4.22;;;3.05;;
73113;SDS011;61301;51.956;5.876;2023-08-12T01:12:47;7.00;;;4.32;;
73113;SDS011;61301;51.956;5.876;2023-08-12T01:15:22;6.20;;;4.57;;
73113;SDS011;61301;51.956;5.876;2023-08-12T01:17:50;2.63;;;2.08;;
73113;SDS011;61301;51.956;5.876;2023-08-12T01:20:22;1.92;;;1.58;;
73113;SDS011;61301;51.956;5.876;2023-08-12T01:22:52;1.20;;;1.10;;
73113;SDS011;61301;51.956;5.876;2023-08-12T01:25:26;3.38;;;1.98;;
73113;SDS011;61301;51.956;5.876;2023-08-12T01:27:52;4.10;;;3.03;;
73113;SDS011;61301;51.956;5.876;2023-08-12T01:30:18;8.13;;;5.30;;
73113;SDS011;61301;51.956;5.876;2023-08-12T01:32:49;8.18;;;5.90;;
73113;SDS011;61301;51.956;5.876;2023-08-12T01:35:40;6.30;;;4.82;;
73113;SDS011;61301;51.956;5.876;2023-08-12T01:38:08;10.55;;;4.53;;
73113;SDS011;61301;51.956;5.876;2023-08-12T01:40:36;7.95;;;5.60;;
73113;SDS011;61301;51.956;5.876;2023-08-12T01:43:04;5.55;;;3.50;;
73113;SDS011;61301;51.956;5.876;2023-08-12T01:45:31;4.72;;;3.47;;
73113;SDS011;61301;51.956;5.876;2023-08-12T01:47:57;3.78;;;2.90;;
73113;SDS011;61301;51.956;5.876;2023-08-12T01:50:23;2.38;;;1.90;;
73113;SDS011;61301;51.956;5.876;2023-08-12T01:52:52;3.28;;;1.63;;
73113;SDS011;61301;51.956;5.876;2023-08-12T01:55:18;4.07;;;2.15;;
73113;SDS011;61301;51.956;5.876;2023-08-12T01:57:44;2.78;;;2.20;;
73113;SDS011;61301;51.956;5.876;2023-08-12T02:00:11;4.20;;;3.40;;
73113;SDS011;61301;51.956;5.876;2023-08-12T02:02:43;4.18;;;2.50;;
73113;SDS011;61301;51.956;5.876;2023-08-12T02:05:12;7.25;;;4.93;;
73113;SDS011;61301;51.956;5.876;2023-08-12T02:07:39;4.22;;;3.00;;
73113;SDS011;61301;51.956;5.876;2023-08-12T02:10:05;5.45;;;4.50;;
73113;SDS011;61301;51.956;5.876;2023-08-12T02:12:31;5.68;;;4.85;;
73113;SDS011;61301;51.956;5.876;2023-08-12T02:14:57;4.25;;;3.13;;
73113;SDS011;61301;51.956;5.876;2023-08-12T02:17:23;2.65;;;2.40;;
73113;SDS011;61301;51.956;5.876;2023-08-12T02:19:51;1.67;;;1.25;;
73113;SDS011;61301;51.956;5.876;2023-08-12T02:22:17;1.90;;;1.67;;
73113;SDS011;61301;51.956;5.876;2023-08-12T02:24:43;6.80;;;3.78;;
73113;SDS011;61301;51.956;5.876;2023-08-12T02:27:09;9.45;;;6.60;;
73113;SDS011;61301;51.956;5.876;2023-08-12T02:29:35;11.63;;;8.60;;
73113;SDS011;61301;51.956;5.876;2023-08-12T02:32:01;12.90;;;9.90;;
73113;SDS011;61301;51.956;5.876;2023-08-12T02:34:28;14.27;;;8.40;;
73113;SDS011;61301;51.956;5.876;2023-08-12T02:36:54;8.15;;;6.32;;
73113;SDS011;61301;51.956;5.876;2023-08-12T02:39:20;9.45;;;6.50;;
73113;SDS011;61301;51.956;5.876;2023-08-12T02:41:46;12.10;;;9.38;;
73113;SDS011;61301;51.956;5.876;2023-08-12T02:44:12;10.68;;;7.95;;
73113;SDS011;61301;51.956;5.876;2023-08-12T02:46:38;6.57;;;5.68;;
73113;SDS011;61301;51.956;5.876;2023-08-12T02:49:04;7.47;;;6.25;;
73113;SDS011;61301;51.956;5.876;2023-08-12T02:51:30;7.05;;;4.93;;
73113;SDS011;61301;51.956;5.876;2023-08-12T02:53:56;10.57;;;7.82;;
73113;SDS011;61301;51.956;5.876;2023-08-12T02:56:22;13.70;;;8.93;;
73113;SDS011;61301;51.956;5.876;2023-08-12T02:58:48;8.25;;;7.43;;
73113;SDS011;61301;51.956;5.876;2023-08-12T03:01:14;14.32;;;11.20;;
73113;SDS011;61301;51.956;5.876;2023-08-12T03:03:41;13.23;;;11.18;;
73113;SDS011;61301;51.956;5.876;2023-08-12T03:06:07;11.75;;;10.55;;
73113;SDS011;61301;51.956;5.876;2023-08-12T03:08:33;14.80;;;9.27;;
73113;SDS011;61301;51.956;5.876;2023-08-12T03:11:00;13.70;;;10.35;;
73113;SDS011;61301;51.956;5.876;2023-08-12T03:13:27;13.52;;;11.50;;
73113;SDS011;61301;51.956;5.876;2023-08-12T03:15:54;13.38;;;10.18;;
73113;SDS011;61301;51.956;5.876;2023-08-12T03:18:21;17.30;;;12.00;;
73113;SDS011;61301;51.956;5.876;2023-08-12T03:20:47;13.07;;;10.70;;
73113;SDS011;61301;51.956;5.876;2023-08-12T03:23:14;16.13;;;10.65;;
73113;SDS011;61301;51.956;5.876;2023-08-12T03:25:42;11.82;;;8.90;;
73113;SDS011;61301;51.956;5.876;2023-08-12T03:28:08;9.60;;;8.57;;
73113;SDS011;61301;51.956;5.876;2023-08-12T03:30:34;13.35;;;10.52;;
73113;SDS011;61301;51.956;5.876;2023-08-12T03:33:01;16.67;;;12.77;;
73113;SDS011;61301;51.956;5.876;2023-08-12T03:35:31;15.55;;;11.55;;
73113;SDS011;61301;51.956;5.876;2023-08-12T03:37:57;15.55;;;10.57;;
73113;SDS011;61301;51.956;5.876;2023-08-12T03:40:23;12.70;;;11.30;;
73113;SDS011;61301;51.956;5.876;2023-08-12T03:42:49;12.30;;;9.10;;
73113;SDS011;61301;51.956;5.876;2023-08-12T03:45:16;8.55;;;6.53;;
73113;SDS011;61301;51.956;5.876;2023-08-12T03:47:42;12.18;;;10.10;;
73113;SDS011;61301;51.956;5.876;2023-08-12T03:50:09;11.93;;;8.07;;
73113;SDS011;61301;51.956;5.876;2023-08-12T03:52:35;11.38;;;9.95;;
73113;SDS011;61301;51.956;5.876;2023-08-12T03:55:01;9.65;;;7.65;;
73113;SDS011;61301;51.956;5.876;2023-08-12T03:57:27;13.35;;;10.52;;
73113;SDS011;61301;51.956;5.876;2023-08-12T03:59:53;11.27;;;9.35;;
73113;SDS011;61301;51.956;5.876;2023-08-12T04:02:19;14.77;;;11.10;;
73113;SDS011;61301;51.956;5.876;2023-08-12T04:04:45;13.35;;;11.18;;
73113;SDS011;61301;51.956;5.876;2023-08-12T04:07:11;10.63;;;8.13;;
73113;SDS011;61301;51.956;5.876;2023-08-12T04:09:37;17.83;;;12.80;;
73113;SDS011;61301;51.956;5.876;2023-08-12T04:12:03;12.88;;;10.38;;
73113;SDS011;61301;51.956;5.876;2023-08-12T04:14:29;11.60;;;9.10;;
73113;SDS011;61301;51.956;5.876;2023-08-12T04:16:56;9.18;;;8.20;;
73113;SDS011;61301;51.956;5.876;2023-08-12T04:19:22;9.82;;;8.60;;
73113;SDS011;61301;51.956;5.876;2023-08-12T04:21:48;10.15;;;7.22;;
73113;SDS011;61301;51.956;5.876;2023-08-12T04:24:14;10.93;;;9.82;;
73113;SDS011;61301;51.956;5.876;2023-08-12T04:26:40;12.77;;;10.13;;
73113;SDS011;61301;51.956;5.876;2023-08-12T04:29:06;17.98;;;12.07;;
73113;SDS011;61301;51.956;5.876;2023-08-12T04:31:35;15.60;;;12.57;;
73113;SDS011;61301;51.956;5.876;2023-08-12T04:34:02;13.27;;;11.02;;
73113;SDS011;61301;51.956;5.876;2023-08-12T04:36:31;13.07;;;10.98;;
73113;SDS011;61301;51.956;5.876;2023-08-12T04:39:00;15.15;;;12.68;;
73113;SDS011;61301;51.956;5.876;2023-08-12T04:41:26;17.52;;;12.50;;
73113;SDS011;61301;51.956;5.876;2023-08-12T04:43:53;23.02;;;16.55;;
73113;SDS011;61301;51.956;5.876;2023-08-12T04:46:22;14.23;;;12.38;;
73113;SDS011;61301;51.956;5.876;2023-08-12T04:48:48;16.05;;;12.20;;
73113;SDS011;61301;51.956;5.876;2023-08-12T04:51:14;18.15;;;14.40;;
73113;SDS011;61301;51.956;5.876;2023-08-12T04:53:40;15.10;;;11.77;;
73113;SDS011;61301;51.956;5.876;2023-08-12T04:56:06;15.05;;;13.02;;
73113;SDS011;61301;51.956;5.876;2023-08-12T04:58:33;15.38;;;12.32;;
73113;SDS011;61301;51.956;5.876;2023-08-12T05:01:00;14.75;;;13.18;;
73113;SDS011;61301;51.956;5.876;2023-08-12T05:03:26;15.88;;;14.18;;
73113;SDS011;61301;51.956;5.876;2023-08-12T05:05:54;15.23;;;13.27;;
73113;SDS011;61301;51.956;5.876;2023-08-12T05:08:23;14.70;;;12.45;;
73113;SDS011;61301;51.956;5.876;2023-08-12T05:10:50;12.93;;;11.43;;
73113;SDS011;61301;51.956;5.876;2023-08-12T05:13:16;14.93;;;13.13;;
73113;SDS011;61301;51.956;5.876;2023-08-12T05:15:46;10.45;;;8.98;;
73113;SDS011;61301;51.956;5.876;2023-08-12T05:18:13;17.75;;;13.70;;
73113;SDS011;61301;51.956;5.876;2023-08-12T05:20:40;13.25;;;8.82;;
73113;SDS011;61301;51.956;5.876;2023-08-12T05:23:07;13.68;;;12.27;;
73113;SDS011;61301;51.956;5.876;2023-08-12T05:25:34;15.25;;;11.20;;
73113;SDS011;61301;51.956;5.876;2023-08-12T05:28:00;12.35;;;11.05;;
73113;SDS011;61301;51.956;5.876;2023-08-12T05:30:26;11.68;;;10.07;;
73113;SDS011;61301;51.956;5.876;2023-08-12T05:32:52;13.88;;;11.60;;
73113;SDS011;61301;51.956;5.876;2023-08-12T05:35:18;13.70;;;10.70;;
73113;SDS011;61301;51.956;5.876;2023-08-12T05:37:44;13.63;;;12.07;;
73113;SDS011;61301;51.956;5.876;2023-08-12T05:40:10;13.75;;;12.32;;
73113;SDS011;61301;51.956;5.876;2023-08-12T05:42:37;14.77;;;12.52;;
73113;SDS011;61301;51.956;5.876;2023-08-12T05:45:03;12.70;;;9.80;;
73113;SDS011;61301;51.956;5.876;2023-08-12T05:47:30;10.13;;;8.18;;
73113;SDS011;61301;51.956;5.876;2023-08-12T05:49:58;6.68;;;6.05;;
73113;SDS011;61301;51.956;5.876;2023-08-12T05:52:24;6.95;;;6.13;;
73113;SDS011;61301;51.956;5.876;2023-08-12T05:54:50;5.50;;;4.47;;
73113;SDS011;61301;51.956;5.876;2023-08-12T05:57:16;6.63;;;5.72;;
73113;SDS011;61301;51.956;5.876;2023-08-12T05:59:42;8.40;;;6.50;;
73113;SDS011;61301;51.956;5.876;2023-08-12T06:02:07;14.20;;;10.07;;
73113;SDS011;61301;51.956;5.876;2023-08-12T06:04:35;14.15;;;8.55;;
73113;SDS011;61301;51.956;5.876;2023-08-12T06:07:01;11.02;;;7.35;;
73113;SDS011;61301;51.956;5.876;2023-08-12T06:09:27;11.40;;;7.75;;
73113;SDS011;61301;51.956;5.876;2023-08-12T06:11:53;14.20;;;8.77;;
73113;SDS011;61301;51.956;5.876;2023-08-12T06:14:19;12.30;;;8.07;;
73113;SDS011;61301;51.956;5.876;2023-08-12T06:16:45;10.23;;;7.20;;
73113;SDS011;61301;51.956;5.876;2023-08-12T06:19:11;9.10;;;6.28;;
73113;SDS011;61301;51.956;5.876;2023-08-12T06:21:37;7.38;;;5.38;;
73113;SDS011;61301;51.956;5.876;2023-08-12T06:24:03;9.95;;;6.55;;
73113;SDS011;61301;51.956;5.876;2023-08-12T06:26:29;10.18;;;7.68;;
73113;SDS011;61301;51.956;5.876;2023-08-12T06:28:55;10.25;;;7.75;;
73113;SDS011;61301;51.956;5.876;2023-08-12T06:31:21;9.43;;;7.25;;
73113;SDS011;61301;51.956;5.876;2023-08-12T06:33:47;6.95;;;5.10;;
73113;SDS011;61301;51.956;5.876;2023-08-12T06:36:13;8.70;;;5.25;;
73113;SDS011;61301;51.956;5.876;2023-08-12T06:38:39;8.00;;;5.28;;
73113;SDS011;61301;51.956;5.876;2023-08-12T06:41:05;7.35;;;4.50;;
73113;SDS011;61301;51.956;5.876;2023-08-12T06:43:31;5.95;;;3.83;;
73113;SDS011;61301;51.956;5.876;2023-08-12T06:45:57;5.55;;;3.20;;
73113;SDS011;61301;51.956;5.876;2023-08-12T06:48:23;3.28;;;2.80;;
73113;SDS011;61301;51.956;5.876;2023-08-12T06:50:52;5.35;;;3.70;;
73113;SDS011;61301;51.956;5.876;2023-08-12T06:53:22;4.22;;;3.50;;
73113;SDS011;61301;51.956;5.876;2023-08-12T06:55:48;2.97;;;2.25;;
73113;SDS011;61301;51.956;5.876;2023-08-12T06:58:14;4.63;;;3.20;;
73113;SDS011;61301;51.956;5.876;2023-08-12T07:00:42;6.65;;;4.20;;
73113;SDS011;61301;51.956;5.876;2023-08-12T07:03:09;6.35;;;3.75;;
73113;SDS011;61301;51.956;5.876;2023-08-12T07:05:35;6.18;;;4.13;;
73113;SDS011;61301;51.956;5.876;2023-08-12T07:08:01;4.40;;;3.38;;
73113;SDS011;61301;51.956;5.876;2023-08-12T07:10:26;7.53;;;5.10;;
73113;SDS011;61301;51.956;5.876;2023-08-12T07:12:52;4.85;;;3.72;;
73113;SDS011;61301;51.956;5.876;2023-08-12T07:15:18;7.32;;;4.47;;
73113;SDS011;61301;51.956;5.876;2023-08-12T07:17:44;8.20;;;5.15;;
73113;SDS011;61301;51.956;5.876;2023-08-12T07:20:10;5.50;;;3.58;;
73113;SDS011;61301;51.956;5.876;2023-08-12T07:22:36;8.63;;;5.30;;
73113;SDS011;61301;51.956;5.876;2023-08-12T07:25:02;4.65;;;4.15;;
73113;SDS011;61301;51.956;5.876;2023-08-12T07:27:28;6.93;;;4.60;;
73113;SDS011;61301;51.956;5.876;2023-08-12T07:29:54;7.53;;;4.72;;
73113;SDS011;61301;51.956;5.876;2023-08-12T07:32:21;7.30;;;4.88;;
73113;SDS011;61301;51.956;5.876;2023-08-12T07:34:47;9.32;;;4.93;;
73113;SDS011;61301;51.956;5.876;2023-08-12T07:37:13;7.72;;;5.07;;
73113;SDS011;61301;51.956;5.876;2023-08-12T07:39:39;5.95;;;4.20;;
73113;SDS011;61301;51.956;5.876;2023-08-12T07:42:05;8.52;;;4.90;;
73113;SDS011;61301;51.956;5.876;2023-08-12T07:44:31;8.02;;;4.97;;
73113;SDS011;61301;51.956;5.876;2023-08-12T07:46:56;4.88;;;3.78;;
73113;SDS011;61301;51.956;5.876;2023-08-12T07:49:22;8.70;;;4.60;;
73113;SDS011;61301;51.956;5.876;2023-08-12T07:51:48;6.90;;;3.83;;
73113;SDS011;61301;51.956;5.876;2023-08-12T07:54:15;3.47;;;3.17;;
73113;SDS011;61301;51.956;5.876;2023-08-12T07:56:41;4.22;;;3.50;;
73113;SDS011;61301;51.956;5.876;2023-08-12T07:59:07;6.28;;;3.03;;
73113;SDS011;61301;51.956;5.876;2023-08-12T08:01:33;6.70;;;3.63;;
73113;SDS011;61301;51.956;5.876;2023-08-12T08:03:59;5.60;;;3.67;;
73113;SDS011;61301;51.956;5.876;2023-08-12T08:06:25;6.05;;;3.40;;
73113;SDS011;61301;51.956;5.876;2023-08-12T08:08:51;3.42;;;3.13;;
73113;SDS011;61301;51.956;5.876;2023-08-12T08:11:17;3.45;;;2.58;;
73113;SDS011;61301;51.956;5.876;2023-08-12T08:13:42;3.85;;;2.50;;
73113;SDS011;61301;51.956;5.876;2023-08-12T08:16:08;4.25;;;2.67;;
73113;SDS011;61301;51.956;5.876;2023-08-12T08:18:34;2.15;;;1.90;;
73113;SDS011;61301;51.956;5.876;2023-08-12T08:21:00;4.75;;;2.17;;
73113;SDS011;61301;51.956;5.876;2023-08-12T08:23:26;2.63;;;2.13;;
73113;SDS011;61301;51.956;5.876;2023-08-12T08:25:52;2.83;;;2.42;;
73113;SDS011;61301;51.956;5.876;2023-08-12T08:28:18;3.33;;;2.00;;
73113;SDS011;61301;51.956;5.876;2023-08-12T08:30:44;2.58;;;2.38;;
73113;SDS011;61301;51.956;5.876;2023-08-12T08:33:10;2.53;;;2.00;;
73113;SDS011;61301;51.956;5.876;2023-08-12T08:35:36;2.40;;;1.70;;
73113;SDS011;61301;51.956;5.876;2023-08-12T08:38:02;2.97;;;1.70;;
73113;SDS011;61301;51.956;5.876;2023-08-12T08:40:28;1.95;;;1.70;;
73113;SDS011;61301;51.956;5.876;2023-08-12T08:42:54;4.07;;;1.88;;
73113;SDS011;61301;51.956;5.876;2023-08-12T08:45:25;2.20;;;1.67;;
73113;SDS011;61301;51.956;5.876;2023-08-12T08:47:52;3.13;;;1.15;;
73113;SDS011;61301;51.956;5.876;2023-08-12T08:50:18;2.03;;;1.50;;
73113;SDS011;61301;51.956;5.876;2023-08-12T08:52:45;1.77;;;1.65;;
73113;SDS011;61301;51.956;5.876;2023-08-12T08:55:12;1.90;;;1.80;;
73113;SDS011;61301;51.956;5.876;2023-08-12T08:57:39;1.52;;;1.42;;
73113;SDS011;61301;51.956;5.876;2023-08-12T09:00:07;2.88;;;1.73;;
73113;SDS011;61301;51.956;5.876;2023-08-12T09:02:33;2.38;;;1.80;;
73113;SDS011;61301;51.956;5.876;2023-08-12T09:05:01;1.63;;;1.20;;
73113;SDS011;61301;51.956;5.876;2023-08-12T09:07:28;1.60;;;1.50;;
73113;SDS011;61301;51.956;5.876;2023-08-12T09:09:55;1.40;;;1.20;;
73113;SDS011;61301;51.956;5.876;2023-08-12T09:12:23;1.42;;;1.33;;
73113;SDS011;61301;51.956;5.876;2023-08-12T09:14:50;1.77;;;1.60;;
73113;SDS011;61301;51.956;5.876;2023-08-12T09:17:16;1.98;;;1.50;;
73113;SDS011;61301;51.956;5.876;2023-08-12T09:19:42;1.30;;;1.20;;
73113;SDS011;61301;51.956;5.876;2023-08-12T09:22:08;1.23;;;1.13;;
73113;SDS011;61301;51.956;5.876;2023-08-12T09:24:34;1.38;;;1.27;;
73113;SDS011;61301;51.956;5.876;2023-08-12T09:27:00;2.20;;;1.27;;
73113;SDS011;61301;51.956;5.876;2023-08-12T09:29:30;0.90;;;0.90;;
73113;SDS011;61301;51.956;5.876;2023-08-12T09:34:52;1.20;;;0.80;;
73113;SDS011;61301;51.956;5.876;2023-08-12T09:37:20;0.65;;;0.65;;
73113;SDS011;61301;51.956;5.876;2023-08-12T09:39:47;0.47;;;0.40;;
73113;SDS011;61301;51.956;5.876;2023-08-12T09:42:15;1.70;;;0.60;;
73113;SDS011;61301;51.956;5.876;2023-08-12T09:44:41;1.85;;;0.40;;
73113;SDS011;61301;51.956;5.876;2023-08-12T09:47:08;0.63;;;0.40;;
73113;SDS011;61301;51.956;5.876;2023-08-12T09:49:34;0.35;;;0.35;;
73113;SDS011;61301;51.956;5.876;2023-08-12T09:52:01;0.20;;;0.20;;
73113;SDS011;61301;51.956;5.876;2023-08-12T09:54:28;0.68;;;0.50;;
73113;SDS011;61301;51.956;5.876;2023-08-12T09:56:58;0.50;;;0.40;;
73113;SDS011;61301;51.956;5.876;2023-08-12T09:59:27;0.50;;;0.40;;
73113;SDS011;61301;51.956;5.876;2023-08-12T10:02:00;0.60;;;0.60;;
73113;SDS011;61301;51.956;5.876;2023-08-12T10:04:33;0.88;;;0.57;;
73113;SDS011;61301;51.956;5.876;2023-08-12T10:07:03;0.32;;;0.32;;
73113;SDS011;61301;51.956;5.876;2023-08-12T10:09:31;0.40;;;0.40;;
73113;SDS011;61301;51.956;5.876;2023-08-12T10:11:58;0.30;;;0.30;;
73113;SDS011;61301;51.956;5.876;2023-08-12T10:14:25;0.20;;;0.20;;
73113;SDS011;61301;51.956;5.876;2023-08-12T10:16:51;0.50;;;0.40;;
73113;SDS011;61301;51.956;5.876;2023-08-12T10:19:18;0.20;;;0.20;;
73113;SDS011;61301;51.956;5.876;2023-08-12T10:21:48;0.90;;;0.38;;
73113;SDS011;61301;51.956;5.876;2023-08-12T10:24:15;0.80;;;0.80;;
73113;SDS011;61301;51.956;5.876;2023-08-12T10:26:42;0.60;;;0.50;;
73113;SDS011;61301;51.956;5.876;2023-08-12T10:29:08;1.83;;;0.90;;
73113;SDS011;61301;51.956;5.876;2023-08-12T10:31:35;1.23;;;0.68;;
73113;SDS011;61301;51.956;5.876;2023-08-12T10:34:01;0.68;;;0.60;;
73113;SDS011;61301;51.956;5.876;2023-08-12T10:36:27;1.42;;;0.90;;
73113;SDS011;61301;51.956;5.876;2023-08-12T10:38:53;4.40;;;1.92;;
73113;SDS011;61301;51.956;5.876;2023-08-12T10:41:20;1.67;;;1.20;;
73113;SDS011;61301;51.956;5.876;2023-08-12T10:44:00;3.35;;;1.40;;
73113;SDS011;61301;51.956;5.876;2023-08-12T10:49:03;2.10;;;1.10;;
73113;SDS011;61301;51.956;5.876;2023-08-12T10:54:34;1.70;;;0.93;;
73113;SDS011;61301;51.956;5.876;2023-08-12T11:04:52;2.58;;;1.05;;
73113;SDS011;61301;51.956;5.876;2023-08-12T11:07:39;1.85;;;1.15;;
73113;SDS011;61301;51.956;5.876;2023-08-12T11:10:11;1.73;;;0.88;;
73113;SDS011;61301;51.956;5.876;2023-08-12T11:12:38;3.45;;;1.33;;
73113;SDS011;61301;51.956;5.876;2023-08-12T11:15:05;3.42;;;1.10;;
73113;SDS011;61301;51.956;5.876;2023-08-12T11:17:36;2.17;;;1.08;;
73113;SDS011;61301;51.956;5.876;2023-08-12T11:20:06;2.40;;;1.23;;
73113;SDS011;61301;51.956;5.876;2023-08-12T11:22:38;3.45;;;1.17;;
73113;SDS011;61301;51.956;5.876;2023-08-12T11:25:06;1.85;;;1.05;;
73113;SDS011;61301;51.956;5.876;2023-08-12T11:27:41;3.17;;;1.10;;
73113;SDS011;61301;51.956;5.876;2023-08-12T11:30:09;3.60;;;1.08;;
73113;SDS011;61301;51.956;5.876;2023-08-12T11:32:37;3.25;;;1.38;;
73113;SDS011;61301;51.956;5.876;2023-08-12T11:35:05;2.58;;;1.10;;
73113;SDS011;61301;51.956;5.876;2023-08-12T11:37:32;3.15;;;1.30;;
73113;SDS011;61301;51.956;5.876;2023-08-12T11:39:58;4.10;;;1.25;;
73113;SDS011;61301;51.956;5.876;2023-08-12T11:42:24;2.95;;;1.20;;
73113;SDS011;61301;51.956;5.876;2023-08-12T11:44:50;2.83;;;1.23;;
73113;SDS011;61301;51.956;5.876;2023-08-12T11:47:16;5.25;;;1.90;;
73113;SDS011;61301;51.956;5.876;2023-08-12T11:49:42;3.33;;;1.17;;
73113;SDS011;61301;51.956;5.876;2023-08-12T11:52:09;3.28;;;1.33;;
73113;SDS011;61301;51.956;5.876;2023-08-12T11:54:36;2.78;;;1.20;;
73113;SDS011;61301;51.956;5.876;2023-08-12T11:57:03;4.78;;;1.30;;
73113;SDS011;61301;51.956;5.876;2023-08-12T11:59:30;4.18;;;1.42;;
73113;SDS011;61301;51.956;5.876;2023-08-12T12:01:56;5.07;;;1.30;;
73113;SDS011;61301;51.956;5.876;2023-08-12T12:04:22;5.20;;;1.50;;
73113;SDS011;61301;51.956;5.876;2023-08-12T12:06:49;4.90;;;2.13;;
73113;SDS011;61301;51.956;5.876;2023-08-12T12:09:15;4.07;;;1.55;;
73113;SDS011;61301;51.956;5.876;2023-08-12T12:11:43;3.97;;;1.50;;
73113;SDS011;61301;51.956;5.876;2023-08-12T12:14:10;3.67;;;1.23;;
73113;SDS011;61301;51.956;5.876;2023-08-12T12:16:46;6.63;;;2.03;;
73113;SDS011;61301;51.956;5.876;2023-08-12T12:19:15;3.90;;;1.33;;
73113;SDS011;61301;51.956;5.876;2023-08-12T12:21:42;3.40;;;1.48;;
73113;SDS011;61301;51.956;5.876;2023-08-12T12:24:11;6.50;;;1.85;;
73113;SDS011;61301;51.956;5.876;2023-08-12T12:26:37;4.68;;;1.50;;
73113;SDS011;61301;51.956;5.876;2023-08-12T12:29:03;4.75;;;1.25;;
73113;SDS011;61301;51.956;5.876;2023-08-12T12:31:31;3.45;;;1.23;;
73113;SDS011;61301;51.956;5.876;2023-08-12T12:33:58;5.47;;;1.70;;
73113;SDS011;61301;51.956;5.876;2023-08-12T12:36:24;4.80;;;1.80;;
73113;SDS011;61301;51.956;5.876;2023-08-12T12:38:51;4.05;;;1.27;;
73113;SDS011;61301;51.956;5.876;2023-08-12T12:41:17;6.35;;;1.60;;
73113;SDS011;61301;51.956;5.876;2023-08-12T12:43:43;6.07;;;1.73;;
73113;SDS011;61301;51.956;5.876;2023-08-12T12:46:09;8.10;;;1.98;;
73113;SDS011;61301;51.956;5.876;2023-08-12T12:48:35;10.60;;;1.73;;
73113;SDS011;61301;51.956;5.876;2023-08-12T12:51:01;6.35;;;1.58;;
73113;SDS011;61301;51.956;5.876;2023-08-12T12:53:27;4.85;;;1.40;;
73113;SDS011;61301;51.956;5.876;2023-08-12T12:55:53;6.90;;;1.80;;
73113;SDS011;61301;51.956;5.876;2023-08-12T12:58:19;5.03;;;1.30;;
73113;SDS011;61301;51.956;5.876;2023-08-12T13:00:48;3.45;;;1.10;;
73113;SDS011;61301;51.956;5.876;2023-08-12T13:03:14;5.10;;;1.63;;
73113;SDS011;61301;51.956;5.876;2023-08-12T13:05:40;4.45;;;1.52;;
73113;SDS011;61301;51.956;5.876;2023-08-12T13:08:06;4.03;;;1.52;;
73113;SDS011;61301;51.956;5.876;2023-08-12T13:10:33;4.90;;;1.52;;
73113;SDS011;61301;51.956;5.876;2023-08-12T13:12:59;4.10;;;1.42;;
73113;SDS011;61301;51.956;5.876;2023-08-12T13:15:25;3.63;;;1.30;;
73113;SDS011;61301;51.956;5.876;2023-08-12T13:17:52;4.28;;;1.65;;
73113;SDS011;61301;51.956;5.876;2023-08-12T13:20:21;3.53;;;0.98;;
73113;SDS011;61301;51.956;5.876;2023-08-12T13:22:47;4.03;;;1.50;;
73113;SDS011;61301;51.956;5.876;2023-08-12T13:25:13;3.20;;;1.10;;
73113;SDS011;61301;51.956;5.876;2023-08-12T13:27:39;5.50;;;1.35;;
73113;SDS011;61301;51.956;5.876;2023-08-12T13:30:05;2.22;;;1.00;;
73113;SDS011;61301;51.956;5.876;2023-08-12T13:32:32;5.25;;;1.63;;
73113;SDS011;61301;51.956;5.876;2023-08-12T13:34:58;2.92;;;0.93;;
73113;SDS011;61301;51.956;5.876;2023-08-12T13:37:24;1.73;;;1.10;;
73113;SDS011;61301;51.956;5.876;2023-08-12T13:39:50;5.55;;;1.48;;
73113;SDS011;61301;51.956;5.876;2023-08-12T13:42:16;3.50;;;1.55;;
73113;SDS011;61301;51.956;5.876;2023-08-12T13:44:42;5.30;;;1.42;;
73113;SDS011;61301;51.956;5.876;2023-08-12T13:47:08;4.63;;;1.75;;
73113;SDS011;61301;51.956;5.876;2023-08-12T13:49:34;4.43;;;1.40;;
73113;SDS011;61301;51.956;5.876;2023-08-12T13:52:00;5.45;;;1.63;;
73113;SDS011;61301;51.956;5.876;2023-08-12T13:54:26;6.22;;;1.77;;
73113;SDS011;61301;51.956;5.876;2023-08-12T13:56:52;2.92;;;1.50;;
73113;SDS011;61301;51.956;5.876;2023-08-12T13:59:17;3.50;;;1.65;;
73113;SDS011;61301;51.956;5.876;2023-08-12T14:01:43;5.43;;;1.60;;
73113;SDS011;61301;51.956;5.876;2023-08-12T14:04:09;5.63;;;1.45;;
73113;SDS011;61301;51.956;5.876;2023-08-12T14:06:35;4.18;;;1.40;;
73113;SDS011;61301;51.956;5.876;2023-08-12T14:09:01;4.78;;;1.35;;
73113;SDS011;61301;51.956;5.876;2023-08-12T14:11:27;6.03;;;1.65;;
73113;SDS011;61301;51.956;5.876;2023-08-12T14:13:53;3.42;;;1.58;;
73113;SDS011;61301;51.956;5.876;2023-08-12T14:16:19;7.88;;;2.42;;
73113;SDS011;61301;51.956;5.876;2023-08-12T14:18:45;6.03;;;1.75;;
73113;SDS011;61301;51.956;5.876;2023-08-12T14:21:11;5.13;;;1.40;;
73113;SDS011;61301;51.956;5.876;2023-08-12T14:23:37;5.65;;;1.48;;
73113;SDS011;61301;51.956;5.876;2023-08-12T14:26:03;5.32;;;1.45;;
73113;SDS011;61301;51.956;5.876;2023-08-12T14:28:29;5.32;;;1.13;;
73113;SDS011;61301;51.956;5.876;2023-08-12T14:30:55;4.43;;;1.20;;
73113;SDS011;61301;51.956;5.876;2023-08-12T14:33:21;3.47;;;1.17;;
73113;SDS011;61301;51.956;5.876;2023-08-12T14:35:50;6.95;;;1.83;;
73113;SDS011;61301;51.956;5.876;2023-08-12T14:38:18;8.70;;;2.28;;
73113;SDS011;61301;51.956;5.876;2023-08-12T14:40:48;4.85;;;1.80;;
73113;SDS011;61301;51.956;5.876;2023-08-12T14:43:14;7.10;;;2.05;;
73113;SDS011;61301;51.956;5.876;2023-08-12T14:45:40;3.17;;;1.35;;
73113;SDS011;61301;51.956;5.876;2023-08-12T14:48:06;4.78;;;1.70;;
73113;SDS011;61301;51.956;5.876;2023-08-12T14:50:32;7.43;;;1.98;;
73113;SDS011;61301;51.956;5.876;2023-08-12T14:52:58;5.15;;;1.58;;
73113;SDS011;61301;51.956;5.876;2023-08-12T14:55:24;6.22;;;1.58;;
73113;SDS011;61301;51.956;5.876;2023-08-12T14:57:50;6.10;;;1.63;;